createdAt,value
2023-05-14T00:00:17.738Z,100704.22
2023-05-14T00:02:20.971Z,100704.22
2023-05-14T00:04:24.116Z,100695.50
2023-05-14T00:06:28.346Z,100692.88
2023-05-14T00:08:31.247Z,100692.88
2023-05-14T00:10:34.014Z,100682.41
2023-05-14T00:12:36.840Z,100685.00
2023-05-14T00:14:39.656Z,100685.00
2023-05-14T00:16:42.402Z,100677.16
2023-05-14T00:18:45.367Z,100681.50
2023-05-14T00:20:48.249Z,100686.75
2023-05-14T00:22:52.412Z,100685.03
2023-05-14T00:24:55.254Z,100688.53
2023-05-14T00:26:58.069Z,100682.41
2023-05-14T00:29:00.957Z,100686.75
2023-05-14T00:31:06.432Z,100679.75
2023-05-14T00:33:09.424Z,100679.75
2023-05-14T00:35:12.305Z,100678.00
2023-05-14T00:37:15.321Z,100674.53
2023-05-14T00:39:19.464Z,100671.06
2023-05-14T00:41:22.312Z,100670.16
2023-05-14T00:43:25.858Z,100673.69
2023-05-14T00:45:29.149Z,100669.31
2023-05-14T00:47:34.783Z,100665.81
2023-05-14T00:49:39.926Z,100671.06
2023-05-14T00:51:46.665Z,100664.94
2023-05-14T00:53:50.932Z,100667.53
2023-05-14T00:55:55.637Z,100672.75
2023-05-14T00:57:58.995Z,100662.31
2023-05-14T01:00:02.293Z,100666.66
2023-05-14T01:02:05.679Z,100664.94
2023-05-14T01:04:09.349Z,100662.31
2023-05-14T01:06:18.358Z,100664.94
2023-05-14T01:08:28.631Z,100660.59
2023-05-14T01:10:40.092Z,100664.94
2023-05-14T01:12:53.440Z,100670.16
2023-05-14T01:15:03.026Z,100664.94
2023-05-14T01:17:06.254Z,100657.97
2023-05-14T01:19:21.144Z,100648.38
2023-05-14T01:21:37.736Z,100659.72
2023-05-14T01:23:40.610Z,100651.88
2023-05-14T01:25:43.427Z,100644.00
2023-05-14T01:27:53.909Z,100644.84
2023-05-14T01:30:04.164Z,100642.25
2023-05-14T01:32:09.698Z,100648.38
2023-05-14T01:34:14.940Z,100637.91
2023-05-14T01:36:17.988Z,100643.13
2023-05-14T01:38:23.758Z,100644.00
2023-05-14T01:40:27.048Z,100648.38
2023-05-14T01:42:30.617Z,100660.59
2023-05-14T01:44:34.375Z,100653.59
2023-05-14T01:46:37.210Z,100649.25
2023-05-14T01:48:41.351Z,100656.22
2023-05-14T01:50:44.595Z,100654.50
2023-05-14T01:52:48.269Z,100645.75
2023-05-14T01:54:52.597Z,100652.75
2023-05-14T01:56:55.567Z,100657.13
2023-05-14T01:58:58.311Z,100652.75
2023-05-14T02:01:01.317Z,100646.63
2023-05-14T02:03:04.341Z,100656.22
2023-05-14T02:05:08.214Z,100661.44
2023-05-14T02:07:11.072Z,100660.59
2023-05-14T02:09:13.976Z,100651.88
2023-05-14T02:11:18.534Z,100657.09
2023-05-14T02:13:21.459Z,100651.03
2023-05-14T02:15:24.271Z,100657.13
2023-05-14T02:17:27.616Z,100652.75
2023-05-14T02:19:30.488Z,100652.75
2023-05-14T02:21:33.812Z,100649.28
2023-05-14T02:23:41.681Z,100651.88
2023-05-14T02:25:45.140Z,100648.38
2023-05-14T02:27:49.457Z,100650.16
2023-05-14T02:29:52.414Z,100646.63
2023-05-14T02:31:55.285Z,100649.25
2023-05-14T02:33:58.198Z,100646.59
2023-05-14T02:36:01.113Z,100643.13
2023-05-14T02:38:04.441Z,100641.38
2023-05-14T02:40:09.072Z,100644.00
2023-05-14T02:42:11.736Z,100650.09
2023-05-14T02:44:15.814Z,100643.09
2023-05-14T02:46:18.671Z,100645.72
2023-05-14T02:48:21.550Z,100649.22
2023-05-14T02:50:24.908Z,100645.72
2023-05-14T02:52:27.874Z,100650.94
2023-05-14T02:54:30.751Z,100654.47
2023-05-14T02:56:33.578Z,100649.19
2023-05-14T02:58:36.369Z,100654.44
2023-05-14T03:00:40.618Z,100646.59
2023-05-14T03:02:44.744Z,100647.44
2023-05-14T03:04:48.180Z,100653.53
2023-05-14T03:06:51.263Z,100648.28
2023-05-14T03:08:54.081Z,100642.19
2023-05-14T03:10:57.149Z,100642.19
2023-05-14T03:12:59.979Z,100649.13
2023-05-14T03:15:02.976Z,100655.22
2023-05-14T03:17:07.378Z,100646.50
2023-05-14T03:19:10.869Z,100650.88
2023-05-14T03:21:13.743Z,100650.84
2023-05-14T03:23:16.711Z,100650.84
2023-05-14T03:25:19.539Z,100651.69
2023-05-14T03:27:22.401Z,100650.81
2023-05-14T03:29:25.206Z,100645.59
2023-05-14T03:31:28.084Z,100640.34
2023-05-14T03:33:33.913Z,100635.13
2023-05-14T03:35:36.718Z,100643.78
2023-05-14T03:37:39.568Z,100647.25
2023-05-14T03:39:42.354Z,100648.94
2023-05-14T03:41:45.156Z,100640.25
2023-05-14T03:43:47.939Z,100635.88
2023-05-14T03:45:52.437Z,100647.22
2023-05-14T03:47:55.529Z,100643.69
2023-05-14T03:49:59.834Z,100641.06
2023-05-14T03:52:02.757Z,100646.28
2023-05-14T03:54:06.139Z,100643.66
2023-05-14T03:56:08.948Z,100645.38
2023-05-14T03:58:14.205Z,100647.13
2023-05-14T04:00:17.757Z,100636.69
2023-05-14T04:02:20.568Z,100648.00
2023-05-14T04:04:23.525Z,100644.53
2023-05-14T04:06:27.743Z,100650.59
2023-05-14T04:08:30.988Z,100654.03
2023-05-14T04:10:33.747Z,100642.75
2023-05-14T04:12:36.710Z,100647.97
2023-05-14T04:14:39.786Z,100648.88
2023-05-14T04:16:42.671Z,100642.84
2023-05-14T04:18:45.955Z,100645.44
2023-05-14T04:20:48.824Z,100636.69
2023-05-14T04:22:53.053Z,100641.88
2023-05-14T04:24:55.800Z,100645.38
2023-05-14T04:26:58.738Z,100641.88
2023-05-14T04:29:03.138Z,100651.38
2023-05-14T04:31:06.092Z,100642.66
2023-05-14T04:33:08.962Z,100645.19
2023-05-14T04:35:12.811Z,100640.03
2023-05-14T04:37:15.860Z,100642.66
2023-05-14T04:39:19.984Z,100646.16
2023-05-14T04:41:22.707Z,100643.41
2023-05-14T04:43:25.448Z,100642.56
2023-05-14T04:45:28.246Z,100639.13
2023-05-14T04:47:31.124Z,100641.75
2023-05-14T04:49:34.369Z,100653.09
2023-05-14T04:51:37.180Z,100643.53
2023-05-14T04:53:39.962Z,100646.28
2023-05-14T04:55:44.131Z,100644.53
2023-05-14T04:57:46.908Z,100654.13
2023-05-14T04:59:49.685Z,100653.19
2023-05-14T05:01:52.705Z,100654.97
2023-05-14T05:03:55.577Z,100660.19
2023-05-14T05:05:58.702Z,100661.97
2023-05-14T05:08:01.576Z,100655.88
2023-05-14T05:10:04.462Z,100662.81
2023-05-14T05:12:18.605Z,100654.13
2023-05-14T05:14:21.390Z,100655.00
2023-05-14T05:16:24.226Z,100659.38
2023-05-14T05:18:27.120Z,100662.00
2023-05-14T05:20:30.178Z,100662.84
2023-05-14T05:22:33.060Z,100670.78
2023-05-14T05:24:35.841Z,100673.38
2023-05-14T05:26:38.611Z,100664.69
2023-05-14T05:28:42.771Z,100662.94
2023-05-14T05:30:45.988Z,100665.56
2023-05-14T05:32:49.089Z,100672.53
2023-05-14T05:34:52.584Z,100679.56
2023-05-14T05:36:55.415Z,100672.56
2023-05-14T05:38:58.239Z,100677.78
2023-05-14T05:41:01.027Z,100673.41
2023-05-14T05:43:03.863Z,100666.44
2023-05-14T05:45:09.173Z,100675.19
2023-05-14T05:47:12.057Z,100675.19
2023-05-14T05:49:14.870Z,100679.53
2023-05-14T05:51:17.713Z,100676.00
2023-05-14T05:53:20.489Z,100666.41
2023-05-14T05:55:23.415Z,100671.56
2023-05-14T05:57:27.191Z,100675.97
2023-05-14T05:59:30.101Z,100671.56
2023-05-14T06:01:34.358Z,100667.22
2023-05-14T06:03:37.152Z,100671.56
2023-05-14T06:05:40.028Z,100669.88
2023-05-14T06:07:42.825Z,100674.25
2023-05-14T06:09:45.643Z,100665.56
2023-05-14T06:11:48.477Z,100675.16
2023-05-14T06:13:51.277Z,100666.50
2023-05-14T06:15:54.051Z,100664.78
2023-05-14T06:17:58.311Z,100664.81
2023-05-14T06:20:01.195Z,100666.56
2023-05-14T06:22:04.078Z,100672.66
2023-05-14T06:24:07.724Z,100668.34
2023-05-14T06:26:10.497Z,100670.94
2023-05-14T06:28:13.258Z,100670.97
2023-05-14T06:30:16.559Z,100669.22
2023-05-14T06:32:19.437Z,100669.22
2023-05-14T06:34:23.652Z,100666.59
2023-05-14T06:36:26.436Z,100669.25
2023-05-14T06:38:29.290Z,100674.50
2023-05-14T06:40:32.139Z,100667.50
2023-05-14T06:42:34.943Z,100667.50
2023-05-14T06:44:37.737Z,100659.66
2023-05-14T06:46:40.552Z,100667.50
2023-05-14T06:48:43.951Z,100664.94
2023-05-14T06:50:49.561Z,100666.66
2023-05-14T06:52:52.340Z,100660.56
2023-05-14T06:54:55.175Z,100654.47
2023-05-14T06:56:58.363Z,100658.88
2023-05-14T06:59:01.179Z,100652.75
2023-05-14T07:01:04.023Z,100650.13
2023-05-14T07:03:07.034Z,100640.50
2023-05-14T07:05:10.643Z,100639.63
2023-05-14T07:07:18.204Z,100646.59
2023-05-14T07:09:21.974Z,100636.94
2023-05-14T07:11:24.790Z,100643.06
2023-05-14T07:13:28.671Z,100637.75
2023-05-14T07:15:31.894Z,100636.75
2023-05-14T07:17:34.724Z,100640.19
2023-05-14T07:19:37.627Z,100634.88
2023-05-14T07:21:40.507Z,100632.22
2023-05-14T07:23:44.655Z,100628.75
2023-05-14T07:25:47.457Z,100627.78
2023-05-14T07:27:50.242Z,100625.13
2023-05-14T07:29:53.056Z,100622.38
2023-05-14T07:31:55.897Z,100625.88
2023-05-14T07:33:58.676Z,100609.25
2023-05-14T07:36:01.521Z,100615.34
2023-05-14T07:38:05.800Z,100610.09
2023-05-14T07:40:10.897Z,100609.94
2023-05-14T07:42:21.862Z,100610.88
2023-05-14T07:44:30.996Z,100603.94
2023-05-14T07:46:33.847Z,100602.91
2023-05-14T07:48:36.704Z,100596.56
2023-05-14T07:50:39.520Z,100597.56
2023-05-14T07:52:42.327Z,100599.28
2023-05-14T07:54:45.181Z,100595.84
2023-05-14T07:56:49.507Z,100589.63
2023-05-14T07:58:52.725Z,100591.06
2023-05-14T08:00:56.553Z,100584.31
2023-05-14T08:03:05.194Z,100593.03
2023-05-14T08:05:09.049Z,100588.56
2023-05-14T08:07:12.128Z,100585.22
2023-05-14T08:09:15.176Z,100583.28
2023-05-14T08:11:17.983Z,100584.81
2023-05-14T08:13:22.184Z,100584.00
2023-05-14T08:15:27.515Z,100581.91
2023-05-14T08:17:30.711Z,100588.09
2023-05-14T08:19:33.737Z,100584.59
2023-05-14T08:21:36.598Z,100585.56
2023-05-14T08:23:39.380Z,100581.91
2023-05-14T08:25:42.146Z,100580.84
2023-05-14T08:27:44.919Z,100579.66
2023-05-14T08:29:49.122Z,100570.09
2023-05-14T08:31:52.123Z,100570.91
2023-05-14T08:33:54.871Z,100569.97
2023-05-14T08:36:00.394Z,100563.81
2023-05-14T08:38:03.599Z,100567.16
2023-05-14T08:40:08.517Z,100560.28
2023-05-14T08:42:13.990Z,100568.41
2023-05-14T08:44:20.676Z,100562.22
2023-05-14T08:46:26.099Z,100573.19
2023-05-14T08:48:34.204Z,100561.31
2023-05-14T08:50:37.290Z,100562.53
2023-05-14T08:52:40.904Z,100574.50
2023-05-14T08:54:43.709Z,100564.25
2023-05-14T08:56:47.179Z,100572.28
2023-05-14T08:58:49.966Z,100564.00
2023-05-14T09:00:54.503Z,100566.88
2023-05-14T09:02:58.649Z,100562.59
2023-05-14T09:05:02.893Z,100566.22
2023-05-14T09:07:07.484Z,100564.69
2023-05-14T09:09:10.235Z,100559.59
2023-05-14T09:11:13.524Z,100556.00
2023-05-14T09:13:16.436Z,100551.63
2023-05-14T09:15:19.494Z,100558.69
2023-05-14T09:17:22.460Z,100562.00
2023-05-14T09:19:27.002Z,100558.44
2023-05-14T09:21:32.194Z,100555.19
2023-05-14T09:23:36.288Z,100558.72
2023-05-14T09:25:39.201Z,100555.22
2023-05-14T09:27:41.948Z,100554.28
2023-05-14T09:29:44.793Z,100558.53
2023-05-14T09:31:47.789Z,100547.22
2023-05-14T09:33:53.978Z,100558.22
2023-05-14T09:36:00.885Z,100557.25
2023-05-14T09:38:03.718Z,100560.88
2023-05-14T09:40:09.962Z,100562.75
2023-05-14T09:42:12.787Z,100556.53
2023-05-14T09:44:16.103Z,100556.63
2023-05-14T09:46:19.133Z,100555.78
2023-05-14T09:48:22.875Z,100556.22
2023-05-14T09:50:26.351Z,100542.78
2023-05-14T09:52:30.919Z,100541.84
2023-05-14T09:54:34.344Z,100539.28
2023-05-14T09:56:39.369Z,100542.25
2023-05-14T09:58:42.460Z,100536.38
2023-05-14T10:00:47.660Z,100537.88
2023-05-14T10:02:53.204Z,100528.91
2023-05-14T10:04:58.887Z,100536.75
2023-05-14T10:07:02.624Z,100538.34
2023-05-14T10:09:12.005Z,100531.53
2023-05-14T10:11:20.694Z,100530.91
2023-05-14T10:13:27.059Z,100535.25
2023-05-14T10:15:37.951Z,100536.50
2023-05-14T10:17:45.698Z,100528.69
2023-05-14T10:19:53.479Z,100528.50
2023-05-14T10:22:03.376Z,100528.25
2023-05-14T10:24:09.303Z,100534.53
2023-05-14T10:26:13.028Z,100538.13
2023-05-14T10:28:16.182Z,100523.53
2023-05-14T10:30:22.947Z,100542.31
2023-05-14T10:32:27.073Z,100546.19
2023-05-14T10:34:37.131Z,100541.13
2023-05-14T10:36:40.563Z,100543.75
2023-05-14T10:38:43.442Z,100536.03
2023-05-14T10:40:48.820Z,100537.91
2023-05-14T10:42:51.581Z,100531.06
2023-05-14T10:44:56.962Z,100539.81
2023-05-14T10:47:00.722Z,100532.63
2023-05-14T10:49:03.878Z,100532.75
2023-05-14T10:51:10.081Z,100529.34
2023-05-14T10:53:14.522Z,100523.22
2023-05-14T10:55:17.992Z,100532.84
2023-05-14T10:57:23.621Z,100522.97
2023-05-14T10:59:29.458Z,100524.66
2023-05-14T11:01:32.969Z,100528.03
2023-05-14T11:03:41.704Z,100529.34
2023-05-14T11:05:45.753Z,100526.72
2023-05-14T11:07:49.958Z,100525.94
2023-05-14T11:09:53.361Z,100526.81
2023-05-14T11:11:56.317Z,100530.66
2023-05-14T11:14:00.523Z,100526.31
2023-05-14T11:16:11.957Z,100531.56
2023-05-14T11:18:28.786Z,100530.53
2023-05-14T11:20:32.719Z,100532.44
2023-05-14T11:22:36.494Z,100525.34
2023-05-14T11:24:39.244Z,100523.72
2023-05-14T11:26:42.147Z,100521.16
2023-05-14T11:28:46.678Z,100526.28
2023-05-14T11:30:51.027Z,100522.84
2023-05-14T11:32:54.280Z,100515.69
2023-05-14T11:34:57.276Z,100517.25
2023-05-14T11:37:00.060Z,100506.81
2023-05-14T11:39:02.797Z,100508.47
2023-05-14T11:41:06.330Z,100509.28
2023-05-14T11:43:09.530Z,100515.44
2023-05-14T11:45:13.268Z,100510.00
2023-05-14T11:47:20.521Z,100501.13
2023-05-14T11:49:23.781Z,100502.09
2023-05-14T11:51:26.584Z,100500.38
2023-05-14T11:53:31.454Z,100500.22
2023-05-14T11:55:35.781Z,100497.63
2023-05-14T11:57:38.690Z,100494.78
2023-05-14T11:59:41.941Z,100501.13
2023-05-14T12:01:45.346Z,100498.91
2023-05-14T12:03:49.610Z,100492.75
2023-05-14T12:05:59.413Z,100483.28
2023-05-14T12:08:02.232Z,100490.84
2023-05-14T12:10:05.953Z,100483.41
2023-05-14T12:12:10.915Z,100483.19
2023-05-14T12:14:16.543Z,100478.97
2023-05-14T12:16:21.919Z,100475.41
2023-05-14T12:18:25.888Z,100471.75
2023-05-14T12:20:30.672Z,100467.41
2023-05-14T12:22:35.078Z,100465.88
2023-05-14T12:24:39.381Z,100458.19
2023-05-14T12:26:45.915Z,100463.38
2023-05-14T12:28:48.948Z,100457.94
2023-05-14T12:30:57.946Z,100453.47
2023-05-14T12:33:01.000Z,100451.34
2023-05-14T12:35:04.031Z,100447.94
2023-05-14T12:37:08.316Z,100446.09
2023-05-14T12:39:12.662Z,100445.41
2023-05-14T12:41:15.467Z,100447.00
2023-05-14T12:43:18.254Z,100451.84
2023-05-14T12:45:21.112Z,100445.31
2023-05-14T12:47:24.099Z,100431.88
2023-05-14T12:49:27.045Z,100434.84
2023-05-14T12:51:29.997Z,100442.03
2023-05-14T12:53:35.719Z,100434.47
2023-05-14T12:55:38.519Z,100437.34
2023-05-14T12:57:41.660Z,100428.91
2023-05-14T12:59:44.513Z,100423.78
2023-05-14T13:01:47.466Z,100426.50
2023-05-14T13:03:50.502Z,100426.47
2023-05-14T13:05:53.502Z,100421.94
2023-05-14T13:08:00.596Z,100420.94
2023-05-14T13:10:06.664Z,100424.34
2023-05-14T13:12:10.335Z,100427.53
2023-05-14T13:14:13.162Z,100418.69
2023-05-14T13:16:16.852Z,100417.13
2023-05-14T13:18:19.806Z,100414.03
2023-05-14T13:20:23.556Z,100416.09
2023-05-14T13:22:26.374Z,100408.00
2023-05-14T13:24:29.148Z,100409.19
2023-05-14T13:26:33.225Z,100407.03
2023-05-14T13:28:36.045Z,100402.88
2023-05-14T13:30:38.941Z,100405.63
2023-05-14T13:32:42.326Z,100395.19
2023-05-14T13:34:45.277Z,100397.59
2023-05-14T13:36:49.696Z,100384.19
2023-05-14T13:38:52.502Z,100393.91
2023-05-14T13:40:57.258Z,100388.16
2023-05-14T13:43:01.408Z,100384.66
2023-05-14T13:45:04.745Z,100388.69
2023-05-14T13:47:08.137Z,100384.06
2023-05-14T13:49:11.057Z,100374.75
2023-05-14T13:51:13.832Z,100368.13
2023-05-14T13:53:16.687Z,100366.81
2023-05-14T13:55:19.646Z,100360.28
2023-05-14T13:57:22.919Z,100360.81
2023-05-14T13:59:27.725Z,100355.69
2023-05-14T14:01:31.587Z,100362.13
2023-05-14T14:03:34.694Z,100343.84
2023-05-14T14:05:37.626Z,100344.59
2023-05-14T14:07:40.650Z,100342.94
2023-05-14T14:09:43.465Z,100341.84
2023-05-14T14:11:46.326Z,100332.56
2023-05-14T14:13:49.152Z,100334.25
2023-05-14T14:15:53.464Z,100334.41
2023-05-14T14:17:56.496Z,100328.56
2023-05-14T14:19:59.291Z,100330.22
2023-05-14T14:22:02.093Z,100333.09
2023-05-14T14:24:05.320Z,100332.13
2023-05-14T14:26:08.063Z,100317.34
2023-05-14T14:28:10.893Z,100321.88
2023-05-14T14:30:16.421Z,100319.31
2023-05-14T14:32:21.271Z,100318.59
2023-05-14T14:34:24.189Z,100318.56
2023-05-14T14:36:27.097Z,100321.94
2023-05-14T14:38:29.858Z,100320.47
2023-05-14T14:40:33.924Z,100313.31
2023-05-14T14:42:37.338Z,100315.47
2023-05-14T14:44:40.175Z,100306.63
2023-05-14T14:46:43.422Z,100299.09
2023-05-14T14:48:47.730Z,100301.66
2023-05-14T14:50:50.697Z,100308.06
2023-05-14T14:52:53.406Z,100302.28
2023-05-14T14:54:56.926Z,100290.63
2023-05-14T14:56:59.741Z,100300.88
2023-05-14T14:59:03.330Z,100293.47
2023-05-14T15:01:06.455Z,100295.44
2023-05-14T15:03:09.832Z,100293.69
2023-05-14T15:05:14.022Z,100287.81
2023-05-14T15:07:18.496Z,100288.81
2023-05-14T15:09:21.144Z,100286.41
2023-05-14T15:11:23.913Z,100298.50
2023-05-14T15:13:27.037Z,100289.59
2023-05-14T15:15:29.923Z,100291.41
2023-05-14T15:17:32.739Z,100284.72
2023-05-14T15:19:35.664Z,100284.19
2023-05-14T15:21:39.952Z,100289.28
2023-05-14T15:23:42.755Z,100284.28
2023-05-14T15:25:45.896Z,100290.56
2023-05-14T15:27:48.802Z,100286.84
2023-05-14T15:29:51.678Z,100285.16
2023-05-14T15:33:57.415Z,100285.47
2023-05-14T15:36:00.447Z,100286.91
2023-05-14T15:38:04.637Z,100277.94
2023-05-14T15:40:09.055Z,100285.38
2023-05-14T15:42:11.829Z,100283.34
2023-05-14T15:44:14.700Z,100289.44
2023-05-14T15:46:17.530Z,100279.88
2023-05-14T15:48:20.345Z,100288.03
2023-05-14T15:50:23.344Z,100290.13
2023-05-14T15:52:26.593Z,100277.72
2023-05-14T15:54:30.814Z,100273.38
2023-05-14T15:56:33.769Z,100279.56
2023-05-14T15:58:36.603Z,100270.31
2023-05-14T16:00:39.465Z,100266.28
2023-05-14T16:02:42.423Z,100270.91
2023-05-14T16:04:45.999Z,100267.31
2023-05-14T16:06:48.785Z,100263.03
2023-05-14T16:08:51.719Z,100261.31
2023-05-14T16:10:55.883Z,100258.78
2023-05-14T16:12:58.693Z,100263.00
2023-05-14T16:15:01.514Z,100261.25
2023-05-14T16:17:04.488Z,100261.97
2023-05-14T16:19:07.365Z,100263.81
2023-05-14T16:21:10.160Z,100260.53
2023-05-14T16:23:12.918Z,100265.97
2023-05-14T16:25:15.817Z,100261.97
2023-05-14T16:27:20.041Z,100259.53
2023-05-14T16:29:22.912Z,100254.13
2023-05-14T16:31:25.787Z,100256.16
2023-05-14T16:33:28.598Z,100255.59
2023-05-14T16:35:31.409Z,100260.09
2023-05-14T16:37:34.337Z,100254.13
2023-05-14T16:39:37.149Z,100253.41
2023-05-14T16:41:40.004Z,100250.59
2023-05-14T16:43:45.296Z,100251.38
2023-05-14T16:45:48.142Z,100253.84
2023-05-14T16:47:51.039Z,100260.00
2023-05-14T16:49:53.954Z,100262.69
2023-05-14T16:51:56.745Z,100257.34
2023-05-14T16:53:59.595Z,100261.84
2023-05-14T16:56:02.609Z,100265.00
2023-05-14T16:58:05.407Z,100265.06
2023-05-14T17:00:11.213Z,100262.34
2023-05-14T17:02:14.044Z,100256.13
2023-05-14T17:04:17.715Z,100260.56
2023-05-14T17:06:20.681Z,100257.78
2023-05-14T17:08:23.563Z,100261.16
2023-05-14T17:10:27.668Z,100268.34
2023-05-14T17:12:30.515Z,100262.31
2023-05-14T17:14:33.318Z,100267.72
2023-05-14T17:16:40.438Z,100263.34
2023-05-14T17:18:43.221Z,100263.75
2023-05-14T17:20:45.954Z,100256.88
2023-05-14T17:22:48.986Z,100261.16
2023-05-14T17:24:51.822Z,100260.84
2023-05-14T17:26:54.840Z,100262.69
2023-05-14T17:28:57.696Z,100268.00
2023-05-14T17:31:00.467Z,100261.13
2023-05-14T17:33:04.931Z,100263.00
2023-05-14T17:35:09.559Z,100262.03
2023-05-14T17:37:12.274Z,100262.28
2023-05-14T17:39:15.109Z,100264.03
2023-05-14T17:41:17.991Z,100261.25
2023-05-14T17:43:20.821Z,100258.75
2023-05-14T17:45:23.934Z,100262.94
2023-05-14T17:47:27.046Z,100267.06
2023-05-14T17:49:31.252Z,100263.75
2023-05-14T17:51:34.038Z,100271.53
2023-05-14T17:53:36.791Z,100270.06
2023-05-14T17:55:43.449Z,100267.59
2023-05-14T17:57:46.670Z,100267.75
2023-05-14T17:59:49.492Z,100269.47
2023-05-14T18:01:52.363Z,100269.47
2023-05-14T18:03:55.173Z,100271.09
2023-05-14T18:05:59.637Z,100270.47
2023-05-14T18:08:02.275Z,100271.41
2023-05-14T18:10:05.831Z,100274.09
2023-05-14T18:12:09.736Z,100279.41
2023-05-14T18:14:12.883Z,100277.66
2023-05-14T18:16:15.851Z,100274.25
2023-05-14T18:18:18.779Z,100275.22
2023-05-14T18:20:21.660Z,100275.94
2023-05-14T18:22:25.921Z,100280.47
2023-05-14T18:24:28.760Z,100275.28
2023-05-14T18:26:34.120Z,100283.38
2023-05-14T18:28:37.937Z,100273.72
2023-05-14T18:30:40.855Z,100280.88
2023-05-14T18:32:45.213Z,100282.59
2023-05-14T18:34:48.217Z,100291.41
2023-05-14T18:36:51.211Z,100286.06
2023-05-14T18:38:55.275Z,100287.53
2023-05-14T18:40:58.046Z,100293.91
2023-05-14T18:43:00.833Z,100290.56
2023-05-14T18:45:03.965Z,100293.16
2023-05-14T18:47:08.310Z,100292.44
2023-05-14T18:49:11.078Z,100297.69
2023-05-14T18:51:13.897Z,100302.94
2023-05-14T18:53:17.931Z,100302.97
2023-05-14T18:55:22.116Z,100300.47
2023-05-14T18:57:26.853Z,100310.03
2023-05-14T18:59:29.653Z,100313.44
2023-05-14T19:01:32.525Z,100315.31
2023-05-14T19:03:35.791Z,100323.44
2023-05-14T19:05:38.745Z,100327.28
2023-05-14T19:07:42.880Z,100332.56
2023-05-14T19:09:45.735Z,100342.25
2023-05-14T19:11:50.288Z,100351.50
2023-05-14T19:13:53.199Z,100345.81
2023-05-14T19:15:56.270Z,100344.25
2023-05-14T19:17:59.403Z,100344.81
2023-05-14T19:20:02.298Z,100344.91
2023-05-14T19:22:05.434Z,100336.41
2023-05-14T19:24:08.688Z,100344.69
2023-05-14T19:26:11.512Z,100342.28
2023-05-14T19:28:16.094Z,100345.91
2023-05-14T19:30:18.785Z,100347.50
2023-05-14T19:32:21.545Z,100343.50
2023-05-14T19:34:24.417Z,100344.31
2023-05-14T19:36:27.211Z,100339.94
2023-05-14T19:38:30.465Z,100341.66
2023-05-14T19:40:33.257Z,100333.72
2023-05-14T19:42:36.075Z,100334.56
2023-05-14T19:44:40.263Z,100324.00
2023-05-14T19:46:43.146Z,100333.66
2023-05-14T19:48:45.956Z,100337.16
2023-05-14T19:50:49.136Z,100328.41
2023-05-14T19:52:51.911Z,100326.59
2023-05-14T19:54:55.403Z,100337.19
2023-05-14T19:56:58.186Z,100335.44
2023-05-14T19:59:00.979Z,100337.88
2023-05-14T20:01:05.129Z,100337.88
2023-05-14T20:03:08.103Z,100342.28
2023-05-14T20:05:11.210Z,100345.66
2023-05-14T20:07:15.476Z,100343.00
2023-05-14T20:09:18.257Z,100350.94
2023-05-14T20:11:21.593Z,100350.94
2023-05-14T20:13:25.270Z,100346.56
2023-05-14T20:15:28.318Z,100352.66
2023-05-14T20:17:32.650Z,100350.94
2023-05-14T20:19:35.913Z,100345.66
2023-05-14T20:21:39.228Z,100345.75
2023-05-14T20:23:42.051Z,100354.00
2023-05-14T20:25:44.985Z,100351.47
2023-05-14T20:27:52.501Z,100347.13
2023-05-14T20:29:55.380Z,100354.22
2023-05-14T20:31:58.114Z,100348.22
2023-05-14T20:34:02.325Z,100350.00
2023-05-14T20:36:05.319Z,100352.66
2023-05-14T20:38:08.138Z,100347.44
2023-05-14T20:40:12.568Z,100345.75
2023-05-14T20:42:15.633Z,100344.00
2023-05-14T20:44:19.912Z,100334.41
2023-05-14T20:46:23.421Z,100344.97
2023-05-14T20:48:26.245Z,100332.78
2023-05-14T20:50:30.484Z,100339.81
2023-05-14T20:52:33.303Z,100339.91
2023-05-14T20:54:36.709Z,100341.69
2023-05-14T20:56:39.667Z,100333.84
2023-05-14T20:58:42.554Z,100338.19
2023-05-14T21:00:45.376Z,100335.59
2023-05-14T21:02:49.029Z,100334.75
2023-05-14T21:04:52.227Z,100332.00
2023-05-14T21:06:56.541Z,100335.69
2023-05-14T21:08:59.389Z,100336.56
2023-05-14T21:11:02.264Z,100331.53
2023-05-14T21:13:05.094Z,100334.19
2023-05-14T21:15:09.256Z,100334.25
2023-05-14T21:17:12.359Z,100338.56
2023-05-14T21:19:15.746Z,100333.28
2023-05-14T21:21:18.812Z,100331.63
2023-05-14T21:23:22.949Z,100327.25
2023-05-14T21:25:26.234Z,100322.97
2023-05-14T21:27:29.464Z,100325.59
2023-05-14T21:29:32.248Z,100327.38
2023-05-14T21:31:35.128Z,100326.50
2023-05-14T21:33:38.600Z,100321.28
2023-05-14T21:35:41.872Z,100321.31
2023-05-14T21:37:45.476Z,100316.16
2023-05-14T21:39:51.082Z,100310.06
2023-05-14T21:41:54.689Z,100309.22
2023-05-14T21:43:57.658Z,100311.91
2023-05-14T21:46:00.448Z,100301.44
2023-05-14T21:48:03.491Z,100302.31
2023-05-14T21:50:07.222Z,100290.03
2023-05-14T21:52:10.074Z,100288.34
2023-05-14T21:54:13.947Z,100286.72
2023-05-14T21:56:18.165Z,100274.50
2023-05-14T21:58:21.168Z,100280.63
2023-05-14T22:00:24.109Z,100282.34
2023-05-14T22:02:27.285Z,100286.72
2023-05-14T22:04:30.101Z,100288.44
2023-05-14T22:06:33.637Z,100298.13
2023-05-14T22:08:36.574Z,100286.81
2023-05-14T22:10:39.360Z,100292.16
2023-05-14T22:12:44.612Z,100283.50
2023-05-14T22:14:47.702Z,100283.53
2023-05-14T22:16:50.576Z,100285.31
2023-05-14T22:18:53.542Z,100285.34
2023-05-14T22:20:56.414Z,100281.06
2023-05-14T22:22:59.233Z,100285.47
2023-05-14T22:25:02.127Z,100286.34
2023-05-14T22:27:05.287Z,100279.47
2023-05-14T22:29:09.427Z,100280.34
2023-05-14T22:31:12.277Z,100275.97
2023-05-14T22:33:15.074Z,100279.50
2023-05-14T22:35:18.209Z,100276.91
2023-05-14T22:37:21.112Z,100283.03
2023-05-14T22:39:23.869Z,100278.72
2023-05-14T22:41:26.658Z,100271.69
2023-05-14T22:43:29.915Z,100269.91
2023-05-14T22:45:34.082Z,100269.09
2023-05-14T22:47:36.909Z,100282.25
2023-05-14T22:49:39.993Z,100271.84
2023-05-14T22:51:42.962Z,100270.09
2023-05-14T22:53:47.025Z,100271.84
2023-05-14T22:55:49.787Z,100269.19
2023-05-14T22:57:52.851Z,100261.34
2023-05-14T22:59:55.702Z,100265.72
2023-05-14T23:01:59.922Z,100263.13
2023-05-14T23:04:02.743Z,100264.91
2023-05-14T23:06:05.923Z,100265.84
2023-05-14T23:08:08.771Z,100264.94
2023-05-14T23:10:12.338Z,100262.31
2023-05-14T23:12:15.200Z,100264.16
2023-05-14T23:14:18.682Z,100258.09
2023-05-14T23:16:21.722Z,100263.38
2023-05-14T23:18:26.240Z,100255.50
2023-05-14T23:20:29.027Z,100258.19
2023-05-14T23:22:31.776Z,100260.75
2023-05-14T23:24:34.598Z,100257.19
2023-05-14T23:26:37.314Z,100257.16
2023-05-14T23:28:40.076Z,100258.00
2023-05-14T23:30:43.069Z,100249.22
2023-05-14T23:32:45.952Z,100261.41